createdAt,value
2018-07-02T00:00:30.945Z,42.80
2018-07-02T00:01:31.116Z,43.45
2018-07-02T00:02:30.965Z,44.12
2018-07-02T00:03:31.003Z,43.54
2018-07-02T00:04:31.021Z,44.02
2018-07-02T00:05:31.007Z,44.70
2018-07-02T00:06:31.155Z,45.28
2018-07-02T00:07:31.060Z,46.14
2018-07-02T00:08:31.054Z,46.21
2018-07-02T00:09:31.083Z,46.79
2018-07-02T00:10:31.102Z,46.79
2018-07-02T00:11:31.221Z,47.27
2018-07-02T00:12:31.105Z,47.36
2018-07-02T00:13:31.179Z,47.36
2018-07-02T00:14:31.202Z,47.27
2018-07-02T00:15:31.181Z,46.89
2018-07-02T00:16:31.390Z,46.89
2018-07-02T00:17:31.183Z,47.36
2018-07-02T00:18:31.222Z,47.34
2018-07-02T00:19:31.237Z,48.40
2018-07-02T00:20:31.281Z,48.79
2018-07-02T00:21:31.394Z,48.59
2018-07-02T00:22:31.261Z,48.49
2018-07-02T00:23:31.285Z,48.79
2018-07-02T00:24:31.337Z,48.49
2018-07-02T00:25:31.340Z,48.40
2018-07-02T00:26:31.447Z,48.88
2018-07-02T00:27:31.324Z,48.59
2018-07-02T00:28:31.362Z,48.49
2018-07-02T00:29:31.379Z,49.93
2018-07-02T00:30:31.392Z,49.74
2018-07-02T00:31:31.540Z,50.42
2018-07-02T00:32:31.453Z,50.90
2018-07-02T00:33:31.445Z,51.09
2018-07-02T00:34:31.450Z,50.51
2018-07-02T00:35:31.450Z,50.51
2018-07-02T00:36:31.588Z,50.23
2018-07-02T00:37:31.517Z,49.55
2018-07-02T00:38:31.513Z,49.46
2018-07-02T00:39:31.570Z,50.03
2018-07-02T00:40:31.516Z,49.46
2018-07-02T00:41:31.747Z,49.17
2018-07-02T00:42:31.623Z,49.57
2018-07-02T00:43:31.574Z,49.38
2018-07-02T00:44:31.593Z,49.57
2018-07-02T00:45:31.590Z,49.57
2018-07-02T00:46:31.803Z,49.84
2018-07-02T00:47:31.606Z,49.65
2018-07-02T00:48:31.621Z,49.46
2018-07-02T00:49:31.742Z,50.32
2018-07-02T00:50:31.650Z,50.23
2018-07-02T00:51:31.763Z,50.03
2018-07-02T00:52:31.743Z,49.84
2018-07-02T00:53:31.719Z,49.84
2018-07-02T00:54:31.733Z,50.03
2018-07-02T00:55:31.758Z,51.09
2018-07-02T00:56:31.916Z,51.37
2018-07-02T00:57:31.794Z,51.67
2018-07-02T00:58:31.766Z,51.47
2018-07-02T00:59:31.805Z,52.34
2018-07-02T01:00:31.790Z,52.14
2018-07-02T01:01:31.854Z,52.24
2018-07-02T01:02:31.995Z,51.67
2018-07-02T01:03:31.850Z,52.05
2018-07-02T01:04:31.891Z,51.57
2018-07-02T01:05:31.865Z,51.28
2018-07-02T01:06:31.879Z,51.09
2018-07-02T01:07:32.080Z,50.99
2018-07-02T01:08:31.904Z,51.18
2018-07-02T01:09:32.058Z,50.03
2018-07-02T01:10:32.048Z,51.28
2018-07-02T01:11:31.972Z,50.42
2018-07-02T01:12:32.166Z,50.23
2018-07-02T01:13:31.980Z,50.03
2018-07-02T01:14:32.004Z,49.36
2018-07-02T01:15:32.043Z,49.65
2018-07-02T01:16:32.018Z,49.74
2018-07-02T01:17:32.123Z,50.23
2018-07-02T01:18:32.071Z,50.32
2018-07-02T01:19:32.091Z,50.13
2018-07-02T01:20:32.140Z,50.03
2018-07-02T01:21:32.085Z,50.42
2018-07-02T01:22:32.262Z,50.70
2018-07-02T01:23:32.127Z,50.03
2018-07-02T01:24:32.153Z,51.09
2018-07-02T01:25:32.202Z,50.87
2018-07-02T01:26:32.181Z,51.35
2018-07-02T01:27:32.333Z,51.47
2018-07-02T01:28:32.216Z,50.99
2018-07-02T01:29:32.196Z,51.06
2018-07-02T01:30:32.212Z,50.99
2018-07-02T01:31:32.271Z,50.87
2018-07-02T01:32:32.393Z,50.78
2018-07-02T01:33:32.248Z,51.35
2018-07-02T01:34:32.261Z,50.96
2018-07-02T01:35:32.418Z,51.25
2018-07-02T01:36:32.374Z,51.35
2018-07-02T01:37:32.404Z,51.37
2018-07-02T01:38:32.329Z,51.16
2018-07-02T01:39:32.359Z,51.28
2018-07-02T01:40:32.361Z,51.25
2018-07-02T01:41:32.358Z,51.25
2018-07-02T01:42:32.540Z,51.25
2018-07-02T01:43:32.400Z,51.64
2018-07-02T01:44:32.407Z,51.25
2018-07-02T01:45:32.462Z,51.45
2018-07-02T01:46:32.426Z,51.25
2018-07-02T01:47:32.546Z,51.54
2018-07-02T01:48:32.457Z,51.45
2018-07-02T01:49:32.487Z,51.25
2018-07-02T01:50:32.486Z,51.25
2018-07-02T01:51:32.543Z,51.35
2018-07-02T01:52:32.668Z,51.35
2018-07-02T01:53:32.541Z,51.35
2018-07-02T01:54:32.571Z,51.25
2018-07-02T01:55:32.606Z,51.35
2018-07-02T01:56:32.565Z,51.35
2018-07-02T01:57:32.781Z,51.25
2018-07-02T01:58:32.598Z,51.54
2018-07-02T01:59:32.615Z,51.54
2018-07-02T02:00:32.645Z,52.31
2018-07-02T02:01:32.635Z,51.93
2018-07-02T02:02:32.754Z,52.40
2018-07-02T02:03:32.662Z,52.60
2018-07-02T02:04:32.674Z,52.89
2018-07-02T02:05:32.700Z,52.50
2018-07-02T02:06:32.730Z,52.40
2018-07-02T02:07:32.895Z,52.60
2018-07-02T02:08:32.741Z,53.08
2018-07-02T02:09:32.742Z,53.36
2018-07-02T02:10:32.765Z,53.27
2018-07-02T02:11:32.821Z,53.36
2018-07-02T02:12:32.785Z,53.66
2018-07-02T02:13:32.953Z,54.13
2018-07-02T02:14:32.875Z,54.04
2018-07-02T02:15:32.820Z,54.52
2018-07-02T02:16:32.835Z,54.52
2018-07-02T02:17:32.877Z,54.33
2018-07-02T02:18:32.976Z,54.80
2018-07-02T02:19:32.880Z,54.97
2018-07-02T02:20:32.904Z,54.88
2018-07-02T02:21:32.916Z,54.88
2018-07-02T02:22:32.921Z,54.88
2018-07-02T02:23:33.107Z,54.88
2018-07-02T02:24:32.956Z,54.97
2018-07-02T02:25:32.971Z,55.16
2018-07-02T02:26:32.975Z,54.88
2018-07-02T02:27:33.016Z,55.64
2018-07-02T02:28:33.104Z,56.79
2018-07-02T02:29:33.032Z,56.89
2018-07-02T02:30:33.065Z,57.08
2018-07-02T02:31:33.066Z,57.08
2018-07-02T02:32:33.087Z,57.43
2018-07-02T02:33:33.184Z,57.46
2018-07-02T02:34:33.196Z,57.28
2018-07-02T02:35:33.125Z,58.52
2018-07-02T02:36:33.105Z,57.75
2018-07-02T02:37:33.158Z,57.56
2018-07-02T02:38:33.235Z,57.65
2018-07-02T02:39:33.207Z,57.56
2018-07-02T02:40:33.163Z,57.28
2018-07-02T02:41:33.174Z,57.46
2018-07-02T02:42:33.223Z,57.46
2018-07-02T02:43:33.305Z,58.23
2018-07-02T02:44:33.316Z,58.52
2018-07-02T02:45:33.229Z,58.42
2018-07-02T02:46:33.244Z,58.33
2018-07-02T02:47:33.262Z,58.52
2018-07-02T02:48:33.394Z,58.14
2018-07-02T02:49:33.288Z,58.52
2018-07-02T02:50:33.294Z,58.14
2018-07-02T02:51:33.321Z,58.42
2018-07-02T02:52:33.324Z,57.75
2018-07-02T02:53:33.489Z,58.04
2018-07-02T02:54:33.356Z,57.65
2018-07-02T02:55:33.374Z,58.33
2018-07-02T02:56:33.404Z,58.81
2018-07-02T02:57:33.392Z,58.42
2018-07-02T02:58:33.501Z,58.62
2018-07-02T02:59:33.414Z,59.67
2018-07-02T03:00:33.509Z,59.67
2018-07-02T03:01:33.444Z,59.09
2018-07-02T03:02:33.482Z,59.86
2018-07-02T03:03:33.566Z,59.77
2018-07-02T03:04:33.531Z,60.05
2018-07-02T03:05:33.493Z,60.15
2018-07-02T03:06:33.510Z,60.25
2018-07-02T03:07:33.519Z,60.03
2018-07-02T03:08:33.639Z,60.22
2018-07-02T03:09:33.582Z,60.50
2018-07-02T03:10:33.557Z,60.22
2018-07-02T03:11:33.576Z,60.22
2018-07-02T03:12:33.605Z,60.50
2018-07-02T03:13:33.790Z,59.93
2018-07-02T03:14:33.612Z,60.89
2018-07-02T03:15:33.639Z,61.08
2018-07-02T03:16:33.659Z,61.75
2018-07-02T03:17:33.664Z,61.18
2018-07-02T03:18:33.827Z,61.75
2018-07-02T03:19:33.708Z,61.37
2018-07-02T03:20:33.699Z,61.08
2018-07-02T03:21:33.731Z,61.46
2018-07-02T03:22:33.719Z,60.50
2018-07-02T03:23:33.731Z,59.83
2018-07-02T03:24:33.952Z,59.83
2018-07-02T03:25:33.761Z,59.83
2018-07-02T03:26:33.775Z,59.45
2018-07-02T03:27:33.788Z,59.64
2018-07-02T03:28:33.830Z,58.69
2018-07-02T03:29:33.961Z,58.78
2018-07-02T03:30:33.825Z,58.56
2018-07-02T03:31:33.864Z,58.78
2018-07-02T03:32:33.866Z,58.84
2018-07-02T03:33:33.892Z,58.37
2018-07-02T03:34:33.985Z,58.37
2018-07-02T03:35:33.902Z,58.56
2018-07-02T03:36:33.931Z,58.17
2018-07-02T03:37:33.926Z,59.04
2018-07-02T03:38:33.929Z,58.75
2018-07-02T03:39:34.052Z,58.65
2018-07-02T03:40:33.954Z,58.75
2018-07-02T03:41:33.999Z,58.56
2018-07-02T03:42:33.987Z,58.75
2018-07-02T03:43:34.000Z,58.84
2018-07-02T03:44:34.131Z,59.71
2018-07-02T03:45:34.043Z,59.33
2018-07-02T03:46:34.030Z,59.71
2018-07-02T03:47:34.071Z,59.90
2018-07-02T03:48:34.062Z,59.52
2018-07-02T03:49:34.222Z,59.61
2018-07-02T03:50:34.080Z,59.80
2018-07-02T03:51:34.097Z,60.19
2018-07-02T03:52:34.129Z,59.80
2018-07-02T03:53:34.123Z,59.90
2018-07-02T03:54:34.309Z,59.61
2018-07-02T03:55:34.144Z,59.71
2018-07-02T03:56:34.158Z,59.77
2018-07-02T03:57:34.172Z,59.80
2018-07-02T03:58:34.193Z,59.80
2018-07-02T03:59:34.350Z,59.80
2018-07-02T04:00:34.235Z,59.71
2018-07-02T04:01:34.224Z,59.71
2018-07-02T04:02:34.239Z,59.71
2018-07-02T04:03:34.275Z,59.90
2018-07-02T04:04:34.411Z,59.71
2018-07-02T04:05:34.305Z,59.61
2018-07-02T04:06:34.282Z,60.00
2018-07-02T04:07:34.338Z,59.33
2018-07-02T04:08:34.324Z,59.61
2018-07-02T04:09:34.491Z,59.61
2018-07-02T04:10:34.333Z,59.52
2018-07-02T04:11:34.350Z,59.33
2018-07-02T04:12:34.388Z,59.33
2018-07-02T04:13:34.375Z,58.94
2018-07-02T04:14:34.504Z,59.61
2018-07-02T04:15:34.432Z,59.71
2018-07-02T04:16:34.417Z,59.52
2018-07-02T04:17:34.460Z,59.71
2018-07-02T04:18:34.456Z,60.28
2018-07-02T04:19:34.604Z,60.38
2018-07-02T04:20:34.493Z,61.34
2018-07-02T04:21:34.483Z,62.01
2018-07-02T04:22:34.517Z,61.91
2018-07-02T04:23:34.572Z,61.34
2018-07-02T04:24:34.650Z,61.63
2018-07-02T04:25:34.546Z,61.72
2018-07-02T04:26:34.554Z,62.01
2018-07-02T04:27:34.566Z,62.10
2018-07-02T04:28:34.563Z,62.10
2018-07-02T04:29:34.727Z,62.30
2018-07-02T04:30:34.595Z,62.30
2018-07-02T04:31:34.620Z,62.39
2018-07-02T04:32:34.686Z,62.36
2018-07-02T04:33:34.644Z,62.46
2018-07-02T04:34:34.826Z,62.10
2018-07-02T04:35:34.685Z,62.49
2018-07-02T04:36:34.702Z,62.77
2018-07-02T04:37:34.682Z,63.54
2018-07-02T04:38:34.711Z,63.45
2018-07-02T04:39:34.709Z,63.83
2018-07-02T04:40:34.818Z,63.92
2018-07-02T04:41:34.737Z,63.64
2018-07-02T04:42:34.771Z,63.45
2018-07-02T04:43:34.772Z,63.54
2018-07-02T04:44:34.773Z,63.54
2018-07-02T04:45:34.936Z,64.02
2018-07-02T04:46:34.820Z,64.22
2018-07-02T04:47:34.825Z,65.65
2018-07-02T04:48:35.019Z,67.09
2018-07-02T04:49:34.839Z,67.05
2018-07-02T04:50:34.946Z,67.72
2018-07-02T04:51:34.886Z,67.47
2018-07-02T04:52:34.871Z,67.82
2018-07-02T04:53:34.897Z,67.82
2018-07-02T04:54:34.896Z,68.40
2018-07-02T04:55:35.088Z,67.91
2018-07-02T04:56:34.924Z,68.01
2018-07-02T04:57:34.968Z,68.91
2018-07-02T04:58:34.951Z,68.21
2018-07-02T04:59:35.042Z,68.30
2018-07-02T05:00:35.152Z,68.40
2018-07-02T05:01:34.984Z,68.11
2018-07-02T05:02:35.010Z,68.49
2018-07-02T05:03:35.023Z,67.91
2018-07-02T05:04:35.036Z,68.01
2018-07-02T05:05:35.139Z,68.30
2018-07-02T05:06:35.052Z,68.87
2018-07-02T05:07:35.109Z,68.59
2018-07-02T05:08:35.100Z,68.40
2018-07-02T05:09:35.097Z,68.49
2018-07-02T05:10:35.200Z,68.59
2018-07-02T05:11:35.115Z,69.83
2018-07-02T05:12:35.124Z,68.97
2018-07-02T05:13:35.167Z,69.17
2018-07-02T05:14:35.153Z,69.26
2018-07-02T05:15:35.263Z,68.68
2018-07-02T05:16:35.174Z,68.68
2018-07-02T05:17:35.213Z,69.26
2018-07-02T05:18:35.200Z,69.07
2018-07-02T05:19:35.212Z,69.54
2018-07-02T05:20:35.354Z,69.07
2018-07-02T05:21:35.271Z,69.93
2018-07-02T05:22:35.247Z,70.03
2018-07-02T05:23:35.264Z,70.31
2018-07-02T05:24:35.283Z,70.03
2018-07-02T05:25:35.462Z,71.08
2018-07-02T05:26:35.326Z,71.27
2018-07-02T05:27:35.311Z,72.13
2018-07-02T05:28:35.324Z,72.03
2018-07-02T05:29:35.340Z,71.94
2018-07-02T05:30:35.475Z,72.42
2018-07-02T05:31:35.364Z,72.71
2018-07-02T05:32:35.371Z,72.42
2018-07-02T05:33:35.412Z,72.03
2018-07-02T05:34:35.407Z,72.32
2018-07-02T05:35:35.566Z,71.75
2018-07-02T05:36:35.449Z,71.08
2018-07-02T05:37:35.441Z,71.08
2018-07-02T05:38:35.444Z,70.89
2018-07-02T05:39:35.486Z,70.89
2018-07-02T05:40:35.574Z,70.21
2018-07-02T05:41:35.485Z,70.12
2018-07-02T05:42:35.506Z,70.21
2018-07-02T05:43:35.510Z,70.12
2018-07-02T05:44:35.549Z,70.21
2018-07-02T05:45:35.687Z,69.83
2018-07-02T05:46:35.546Z,69.54
2018-07-02T05:47:35.560Z,69.93
2018-07-02T05:48:35.630Z,69.17
2018-07-02T05:49:35.587Z,69.17
2018-07-02T05:50:35.728Z,68.49
2018-07-02T05:51:35.646Z,68.59
2018-07-02T05:52:35.649Z,68.49
2018-07-02T05:53:35.644Z,68.87
2018-07-02T05:54:35.660Z,68.59
2018-07-02T05:55:35.839Z,68.87
2018-07-02T05:56:35.697Z,68.49
2018-07-02T05:57:35.711Z,68.87
2018-07-02T05:58:35.725Z,69.35
2018-07-02T05:59:35.710Z,69.26
2018-07-02T06:00:35.811Z,68.87
2018-07-02T06:01:35.913Z,69.17
2018-07-02T06:02:35.746Z,68.87
2018-07-02T06:03:35.763Z,69.83
2018-07-02T06:04:35.766Z,69.07
2018-07-02T06:05:35.814Z,69.83
2018-07-02T06:06:35.976Z,69.26
2018-07-02T06:07:35.838Z,69.26
2018-07-02T06:08:35.846Z,69.74
2018-07-02T06:09:35.835Z,69.64
2018-07-02T06:10:35.876Z,69.83
2018-07-02T06:11:35.959Z,69.99
2018-07-02T06:12:35.873Z,69.83
2018-07-02T06:13:35.917Z,69.99
2018-07-02T06:14:35.902Z,69.60
2018-07-02T06:15:35.913Z,69.70
2018-07-02T06:16:36.202Z,70.37
2018-07-02T06:17:35.958Z,69.89
2018-07-02T06:18:35.971Z,68.74
2018-07-02T06:19:35.983Z,67.21
2018-07-02T06:20:35.994Z,68.07
2018-07-02T06:21:36.110Z,68.36
2018-07-02T06:22:36.001Z,67.85
2018-07-02T06:23:36.019Z,68.33
2018-07-02T06:24:36.033Z,68.23
2018-07-02T06:25:36.031Z,69.48
2018-07-02T06:26:36.145Z,71.20
2018-07-02T06:27:36.057Z,71.58
2018-07-02T06:28:36.100Z,71.77
2018-07-02T06:29:36.105Z,72.16
2018-07-02T06:30:36.169Z,71.39
2018-07-02T06:31:36.276Z,71.01
2018-07-02T06:32:36.140Z,69.76
2018-07-02T06:33:36.161Z,69.09
2018-07-02T06:34:36.167Z,68.52
2018-07-02T06:35:36.169Z,68.87
2018-07-02T06:36:36.264Z,70.11
2018-07-02T06:37:36.180Z,71.36
2018-07-02T06:38:36.193Z,72.41
2018-07-02T06:39:36.199Z,73.94
2018-07-02T06:40:36.243Z,75.76
2018-07-02T06:41:36.372Z,77.00
2018-07-02T06:42:36.239Z,79.87
2018-07-02T06:43:36.250Z,79.77
2018-07-02T06:44:36.268Z,81.21
2018-07-02T06:45:36.277Z,81.40
2018-07-02T06:46:36.432Z,81.40
2018-07-02T06:47:36.312Z,82.07
2018-07-02T06:48:36.461Z,81.97
2018-07-02T06:49:36.320Z,82.07
2018-07-02T06:50:36.335Z,81.73
2018-07-02T06:51:36.498Z,81.25
2018-07-02T06:52:36.351Z,81.54
2018-07-02T06:53:36.397Z,80.77
2018-07-02T06:54:36.376Z,80.29
2018-07-02T06:55:36.392Z,79.72
2018-07-02T06:56:36.556Z,79.33
2018-07-02T06:57:36.443Z,78.86
2018-07-02T06:58:36.462Z,78.19
2018-07-02T06:59:36.464Z,78.47
2018-07-02T07:00:36.451Z,79.33
2018-07-02T07:01:36.618Z,79.14
2018-07-02T07:02:36.474Z,79.33
2018-07-02T07:03:36.488Z,79.05
2018-07-02T07:04:36.499Z,78.57
2018-07-02T07:05:36.541Z,78.95
2018-07-02T07:06:36.663Z,78.66
2018-07-02T07:07:36.559Z,78.09
2018-07-02T07:08:36.590Z,77.99
2018-07-02T07:09:36.587Z,78.09
2018-07-02T07:10:36.596Z,78.89
2018-07-02T07:11:36.687Z,78.42
2018-07-02T07:12:36.594Z,78.03
2018-07-02T07:13:36.609Z,78.32
2018-07-02T07:14:36.617Z,78.32
2018-07-02T07:15:36.682Z,77.46
2018-07-02T07:16:36.789Z,76.98
2018-07-02T07:17:36.660Z,77.36
2018-07-02T07:18:36.666Z,76.89
2018-07-02T07:19:36.680Z,77.36
2018-07-02T07:20:36.695Z,76.40
2018-07-02T07:21:36.706Z,76.60
2018-07-02T07:22:36.864Z,76.69
2018-07-02T07:23:36.752Z,76.60
2018-07-02T07:24:36.742Z,76.40
2018-07-02T07:25:36.753Z,76.40
2018-07-02T07:26:36.774Z,75.93
2018-07-02T07:27:36.973Z,75.73
2018-07-02T07:28:36.790Z,76.02
2018-07-02T07:29:36.816Z,75.93
2018-07-02T07:30:36.814Z,76.12
2018-07-02T07:31:36.851Z,75.93
2018-07-02T07:32:36.963Z,75.93
2018-07-02T07:33:36.856Z,76.40
2018-07-02T07:34:36.865Z,76.21
2018-07-02T07:35:36.874Z,76.60
2018-07-02T07:36:36.887Z,76.98
2018-07-02T07:37:37.050Z,77.75
2018-07-02T07:38:36.933Z,78.09
2018-07-02T07:39:36.924Z,78.03
2018-07-02T07:40:36.934Z,78.19
2018-07-02T07:41:36.973Z,77.84
2018-07-02T07:42:37.107Z,78.42
2018-07-02T07:43:36.978Z,78.99
2018-07-02T07:44:37.009Z,79.66
2018-07-02T07:45:36.992Z,80.10
2018-07-02T07:46:37.002Z,80.04
2018-07-02T07:47:37.118Z,80.29
2018-07-02T07:48:37.031Z,80.77
2018-07-02T07:49:37.045Z,81.34
2018-07-02T07:50:37.056Z,81.57
2018-07-02T07:51:37.116Z,81.34
2018-07-02T07:52:37.225Z,81.73
2018-07-02T07:53:37.092Z,81.25
2018-07-02T07:54:37.129Z,81.29
2018-07-02T07:55:37.111Z,81.38
2018-07-02T07:56:37.124Z,81.00
2018-07-02T07:57:37.264Z,80.52
2018-07-02T07:58:37.146Z,80.62
2018-07-02T07:59:37.189Z,79.95
2018-07-02T08:00:37.181Z,80.38
2018-07-02T08:01:37.194Z,80.87
2018-07-02T08:02:37.356Z,80.77
2018-07-02T08:03:37.292Z,80.96
2018-07-02T08:04:37.234Z,81.15
2018-07-02T08:05:37.232Z,80.87
2018-07-02T08:06:37.255Z,81.73
2018-07-02T08:07:37.402Z,81.54
2018-07-02T08:08:37.296Z,82.11
2018-07-02T08:09:37.305Z,82.30
2018-07-02T08:10:37.325Z,82.11
2018-07-02T08:11:37.307Z,82.20
2018-07-02T08:12:37.466Z,82.40
2018-07-02T08:13:37.331Z,82.11
2018-07-02T08:14:37.349Z,82.20
2018-07-02T08:15:37.358Z,81.92
2018-07-02T08:16:37.376Z,81.25
2018-07-02T08:17:37.483Z,82.30
2018-07-02T08:18:37.387Z,81.96
2018-07-02T08:19:37.401Z,82.11
2018-07-02T08:20:37.437Z,82.20
2018-07-02T08:21:37.427Z,82.97
2018-07-02T08:22:37.612Z,82.78
2018-07-02T08:23:37.445Z,82.59
2018-07-02T08:24:37.486Z,82.78
2018-07-02T08:25:37.479Z,82.78
2018-07-02T08:26:37.486Z,82.97
2018-07-02T08:27:37.591Z,82.87
2018-07-02T08:28:37.502Z,82.87
2018-07-02T08:29:37.518Z,82.78
2018-07-02T08:30:37.532Z,82.78
2018-07-02T08:31:37.541Z,83.45
2018-07-02T08:32:37.683Z,83.73
2018-07-02T08:33:37.600Z,83.54
2018-07-02T08:34:37.605Z,84.12
2018-07-02T08:35:37.592Z,83.93
2018-07-02T08:36:37.629Z,84.12
2018-07-02T08:37:37.742Z,84.31
2018-07-02T08:38:37.633Z,85.08
2018-07-02T08:39:37.662Z,84.41
2018-07-02T08:40:37.645Z,84.12
2018-07-02T08:41:37.662Z,83.83
2018-07-02T08:42:37.690Z,84.12
2018-07-02T08:43:37.787Z,84.79
2018-07-02T08:44:37.701Z,85.36
2018-07-02T08:45:37.711Z,85.36
2018-07-02T08:46:37.751Z,85.55
2018-07-02T08:47:37.735Z,85.84
2018-07-02T08:48:37.920Z,85.75
2018-07-02T08:49:37.758Z,85.55
2018-07-02T08:50:37.797Z,84.98
2018-07-02T08:51:37.813Z,83.93
2018-07-02T08:52:37.812Z,83.93
2018-07-02T08:53:37.964Z,83.54
2018-07-02T08:54:37.845Z,82.40
2018-07-02T08:55:37.828Z,82.26
2018-07-02T08:56:37.866Z,81.21
2018-07-02T08:57:37.856Z,81.02
2018-07-02T08:58:38.042Z,80.06
2018-07-02T08:59:37.903Z,78.81
2018-07-02T09:00:37.901Z,77.86
2018-07-02T09:01:37.898Z,77.86
2018-07-02T09:02:37.944Z,78.05
2018-07-02T09:03:38.024Z,79.64
2018-07-02T09:04:37.933Z,82.51
2018-07-02T09:05:37.942Z,83.75
2018-07-02T09:06:37.959Z,84.80
2018-07-02T09:07:37.969Z,85.09
2018-07-02T09:08:38.083Z,89.87
2018-07-02T09:09:38.020Z,90.01
2018-07-02T09:10:38.007Z,89.01
2018-07-02T09:11:38.015Z,88.05
2018-07-02T09:12:38.052Z,88.72
2018-07-02T09:13:38.203Z,89.43
2018-07-02T09:14:38.086Z,91.11
2018-07-02T09:15:38.074Z,93.50
2018-07-02T09:16:38.117Z,94.21
2018-07-02T09:17:38.594Z,93.69
2018-07-02T09:18:38.196Z,93.07
2018-07-02T09:19:38.116Z,91.25
2018-07-02T09:20:38.146Z,90.87
2018-07-02T09:21:38.162Z,91.97
2018-07-02T09:22:38.147Z,92.30
2018-07-02T09:23:38.332Z,93.35
2018-07-02T09:24:38.182Z,93.74
2018-07-02T09:25:38.175Z,93.35
2018-07-02T09:26:38.187Z,92.69
2018-07-02T09:27:38.202Z,92.88
2018-07-02T09:28:38.360Z,93.07
2018-07-02T09:29:38.257Z,92.97
2018-07-02T09:30:38.250Z,93.16
2018-07-02T09:31:38.253Z,92.88
2018-07-02T09:32:38.332Z,92.69
2018-07-02T09:33:38.448Z,93.16
2018-07-02T09:34:38.282Z,92.49
2018-07-02T09:35:38.532Z,92.78
2018-07-02T09:36:38.308Z,93.74
2018-07-02T09:37:38.346Z,93.84
2018-07-02T09:38:38.457Z,94.12
2018-07-02T09:39:38.339Z,94.79
2018-07-02T09:40:38.385Z,94.79
2018-07-02T09:41:38.363Z,94.98
2018-07-02T09:42:38.384Z,94.12
2018-07-02T09:43:38.514Z,93.93
2018-07-02T09:44:38.413Z,94.89
2018-07-02T09:45:38.413Z,96.42
2018-07-02T09:46:38.429Z,96.42
2018-07-02T09:47:38.463Z,96.22
2018-07-02T09:48:38.615Z,96.13
2018-07-02T09:49:38.462Z,96.70
2018-07-02T09:50:38.468Z,96.80
2018-07-02T09:51:38.492Z,96.70
2018-07-02T09:52:38.494Z,97.28
2018-07-02T09:53:38.669Z,97.37
2018-07-02T09:54:38.513Z,97.47
2018-07-02T09:55:38.541Z,97.47
2018-07-02T09:56:38.566Z,97.28
2018-07-02T09:57:38.550Z,97.95
2018-07-02T09:58:38.671Z,98.04
2018-07-02T09:59:38.596Z,98.24
2018-07-02T10:00:38.635Z,97.66
2018-07-02T10:01:38.598Z,97.18
2018-07-02T10:02:38.609Z,97.08
2018-07-02T10:03:38.733Z,97.18
2018-07-02T10:04:38.667Z,97.95
2018-07-02T10:05:38.671Z,98.04
2018-07-02T10:06:38.683Z,97.85
2018-07-02T10:07:38.667Z,98.04
2018-07-02T10:08:38.674Z,98.43
2018-07-02T10:09:38.839Z,98.61
2018-07-02T10:10:38.732Z,98.52
2018-07-02T10:11:38.713Z,98.61
2018-07-02T10:12:38.779Z,98.24
2018-07-02T10:13:38.762Z,98.52
2018-07-02T10:14:38.929Z,98.43
2018-07-02T10:15:38.790Z,98.61
2018-07-02T10:16:38.798Z,98.14
2018-07-02T10:17:38.781Z,98.14
2018-07-02T10:18:38.792Z,98.24
2018-07-02T10:19:38.933Z,99.00
2018-07-02T10:20:38.819Z,98.61
2018-07-02T10:21:38.856Z,99.48
2018-07-02T10:22:38.869Z,99.86
2018-07-02T10:23:38.946Z,99.48
2018-07-02T10:24:38.966Z,99.86
2018-07-02T10:25:38.878Z,99.99
2018-07-02T10:26:38.916Z,99.99
2018-07-02T10:27:38.898Z,99.86
2018-07-02T10:28:38.915Z,99.96
2018-07-02T10:29:39.078Z,99.76
2018-07-02T10:30:38.963Z,99.86
2018-07-02T10:31:38.975Z,99.96
2018-07-02T10:32:38.984Z,99.99
2018-07-02T10:33:38.970Z,99.81
2018-07-02T10:34:39.134Z,99.81
2018-07-02T10:35:38.996Z,99.72
2018-07-02T10:36:39.006Z,99.43
2018-07-02T10:37:39.047Z,98.86
2018-07-02T10:38:39.033Z,98.57
2018-07-02T10:39:39.146Z,98.76
2018-07-02T10:40:39.078Z,98.95
2018-07-02T10:41:39.091Z,98.09
2018-07-02T10:42:39.082Z,98.00
2018-07-02T10:43:39.116Z,97.13
2018-07-02T10:44:39.252Z,97.13
2018-07-02T10:45:39.121Z,97.04
2018-07-02T10:46:39.133Z,96.56
2018-07-02T10:47:39.144Z,96.03
2018-07-02T10:48:39.155Z,96.13
2018-07-02T10:49:39.265Z,95.07
2018-07-02T10:50:39.188Z,94.89
2018-07-02T10:51:39.189Z,95.07
2018-07-02T10:52:39.234Z,95.27
2018-07-02T10:53:39.223Z,95.07
2018-07-02T10:54:39.378Z,94.89
2018-07-02T10:55:39.289Z,95.07
2018-07-02T10:56:39.250Z,94.21
2018-07-02T10:57:39.268Z,94.31
2018-07-02T10:58:39.276Z,94.98
2018-07-02T10:59:39.419Z,94.21
2018-07-02T11:00:39.306Z,93.26
2018-07-02T11:01:39.345Z,92.30
2018-07-02T11:02:39.329Z,91.25
2018-07-02T11:03:39.370Z,89.90
2018-07-02T11:04:39.534Z,89.72
2018-07-02T11:05:39.397Z,90.09
2018-07-02T11:06:39.411Z,90.86
2018-07-02T11:07:39.399Z,91.53
2018-07-02T11:08:39.418Z,92.01
2018-07-02T11:09:39.540Z,93.35
2018-07-02T11:10:39.458Z,94.02
2018-07-02T11:11:39.448Z,94.89
2018-07-02T11:12:39.466Z,95.07
2018-07-02T11:13:39.487Z,95.07
2018-07-02T11:14:39.659Z,95.22
2018-07-02T11:15:39.526Z,96.08
2018-07-02T11:16:39.537Z,96.89
2018-07-02T11:17:39.548Z,96.99
2018-07-02T11:18:39.591Z,97.28
2018-07-02T11:19:39.648Z,96.99
2018-07-02T11:20:39.585Z,96.89
2018-07-02T11:21:39.601Z,96.89
2018-07-02T11:22:39.589Z,96.80
2018-07-02T11:23:39.635Z,96.70
2018-07-02T11:24:39.640Z,96.70
2018-07-02T11:25:39.784Z,96.99
2018-07-02T11:26:39.665Z,96.42
2018-07-02T11:27:39.682Z,96.51
2018-07-02T11:28:39.690Z,96.89
2018-07-02T11:29:39.684Z,95.84
2018-07-02T11:30:39.816Z,95.07
2018-07-02T11:31:39.707Z,95.07
2018-07-02T11:32:39.747Z,94.69
2018-07-02T11:33:39.748Z,94.31
2018-07-02T11:34:39.748Z,93.64
2018-07-02T11:35:39.908Z,92.78
2018-07-02T11:36:39.799Z,92.63
2018-07-02T11:37:39.789Z,92.82
2018-07-02T11:38:39.800Z,90.53
2018-07-02T11:39:39.838Z,86.60
2018-07-02T11:40:39.980Z,87.31
2018-07-02T11:41:39.851Z,85.78
2018-07-02T11:42:39.856Z,83.09
2018-07-02T11:43:39.870Z,82.42
2018-07-02T11:44:39.884Z,81.46
2018-07-02T11:45:40.067Z,79.59
2018-07-02T11:46:39.917Z,77.00
2018-07-02T11:47:39.928Z,74.22
2018-07-02T11:48:39.972Z,73.77
2018-07-02T11:49:40.002Z,72.11
2018-07-02T11:50:40.143Z,72.78
2018-07-02T11:51:39.998Z,73.93
2018-07-02T11:52:40.007Z,75.18
2018-07-02T11:53:40.049Z,75.02
2018-07-02T11:54:40.033Z,71.09
2018-07-02T11:55:40.204Z,70.51
2018-07-02T11:56:40.067Z,69.07
2018-07-02T11:57:40.106Z,67.63
2018-07-02T11:58:40.129Z,69.56
2018-07-02T11:59:40.118Z,68.21
2018-07-02T12:00:40.304Z,65.94
2018-07-02T12:01:40.171Z,64.50
2018-07-02T12:02:40.160Z,64.40
2018-07-02T12:03:40.175Z,61.62
2018-07-02T12:04:40.191Z,60.60
2018-07-02T12:05:40.391Z,60.50
2018-07-02T12:06:40.224Z,60.11
2018-07-02T12:07:40.268Z,58.87
2018-07-02T12:08:40.253Z,58.48
2018-07-02T12:09:40.282Z,58.42
2018-07-02T12:10:40.397Z,57.17
2018-07-02T12:11:40.304Z,57.17
2018-07-02T12:12:40.351Z,57.26
2018-07-02T12:13:40.339Z,58.03
2018-07-02T12:14:40.358Z,57.65
2018-07-02T12:15:40.473Z,57.17
2018-07-02T12:16:40.392Z,56.68
2018-07-02T12:17:40.421Z,57.55
2018-07-02T12:18:40.452Z,57.55
2018-07-02T12:19:40.473Z,56.88
2018-07-02T12:20:40.558Z,57.75
2018-07-02T12:21:40.487Z,57.65
2018-07-02T12:22:40.491Z,56.49
2018-07-02T12:23:40.509Z,56.11
2018-07-02T12:24:40.531Z,56.78
2018-07-02T12:25:40.696Z,55.82
2018-07-02T12:26:40.559Z,55.56
2018-07-02T12:27:40.593Z,54.47
2018-07-02T12:28:40.596Z,54.79
2018-07-02T12:29:40.633Z,54.99
2018-07-02T12:30:40.627Z,54.60
2018-07-02T12:31:40.828Z,52.87
2018-07-02T12:32:40.667Z,52.39
2018-07-02T12:33:40.691Z,53.16
2018-07-02T12:34:40.702Z,53.16
2018-07-02T12:35:40.746Z,51.84
2018-07-02T12:36:40.849Z,50.20
2018-07-02T12:37:40.767Z,50.10
2018-07-02T12:38:40.773Z,49.36
2018-07-02T12:39:40.799Z,48.97
2018-07-02T12:40:40.817Z,48.88
2018-07-02T12:41:40.954Z,48.97
2018-07-02T12:42:40.858Z,48.02
2018-07-02T12:43:40.898Z,47.82
2018-07-02T12:44:40.887Z,48.02
2018-07-02T12:45:40.905Z,48.79
2018-07-02T12:46:41.051Z,48.69
2018-07-02T12:47:40.940Z,48.69
2018-07-02T12:48:40.985Z,48.40
2018-07-02T12:49:40.988Z,47.63
2018-07-02T12:50:40.996Z,47.08
2018-07-02T12:51:41.180Z,46.31
2018-07-02T12:52:41.036Z,44.79